Time;durP1;ratioP1;P1;durP2;ratioP2;P2;SDS_P1;SDS_P2;PMS_P1;PMS_P2;Temp;Humidity;BMP_temperature;BMP_pressure;BME280_temperature;BME280_humidity;BME280_pressure;Samples;Min_cycle;Max_cycle;Signal;HPM_P1;HPM_P2
2024/01/16 00:01:25;;;;;;;11.47;7.10;;;0.20;99.90;;;;;;5034781;28;20176;-78
2024/01/16 00:03:51;;;;;;;12.83;7.30;;;0.20;99.90;;;;;;5034857;28;20178;-79
2024/01/16 00:06:16;;;;;;;10.80;6.97;;;0.20;99.90;;;;;;5035079;28;20195;-79
2024/01/16 00:08:42;;;;;;;11.00;6.97;;;0.00;99.90;;;;;;5034543;28;20174;-78
2024/01/16 00:11:08;;;;;;;8.10;6.57;;;0.00;99.90;;;;;;5032859;28;20187;-78
2024/01/16 00:13:34;;;;;;;10.70;7.63;;;0.00;99.90;;;;;;5035242;28;20195;-78
2024/01/16 00:16:03;;;;;;;10.10;6.90;;;0.00;99.90;;;;;;5034424;28;20234;-76
2024/01/16 00:18:29;;;;;;;9.13;6.60;;;-0.10;99.90;;;;;;5035822;28;20173;-78
2024/01/16 00:20:55;;;;;;;10.57;7.70;;;0.00;99.90;;;;;;5034799;28;20269;-78
2024/01/16 00:23:21;;;;;;;10.57;7.87;;;-0.10;99.90;;;;;;5035001;28;20205;-79
2024/01/16 00:25:46;;;;;;;11.03;7.53;;;-0.20;99.90;;;;;;5038212;28;20210;-79
2024/01/16 00:28:12;;;;;;;12.97;8.17;;;-0.20;99.90;;;;;;5039603;28;20664;-79
2024/01/16 00:30:38;;;;;;;12.33;7.60;;;-0.10;99.90;;;;;;5046541;28;20227;-77
2024/01/16 00:33:04;;;;;;;10.20;6.73;;;-0.10;99.90;;;;;;5041746;28;20177;-79
2024/01/16 00:35:30;;;;;;;8.63;6.80;;;0.00;99.90;;;;;;5036048;28;20225;-80
2024/01/16 00:37:55;;;;;;;9.03;6.33;;;0.20;99.90;;;;;;5032601;28;20560;-81
2024/01/16 00:40:21;;;;;;;8.50;5.83;;;-0.10;99.90;;;;;;5033808;28;20182;-78
2024/01/16 00:42:47;;;;;;;7.23;5.80;;;-0.10;99.90;;;;;;5033682;28;20192;-76
2024/01/16 00:45:13;;;;;;;5.53;5.03;;;0.10;99.90;;;;;;5035284;28;20211;-78
2024/01/16 00:47:38;;;;;;;6.83;4.87;;;0.10;99.90;;;;;;5038095;28;20281;-80
2024/01/16 00:50:04;;;;;;;5.83;4.70;;;-0.40;99.90;;;;;;5035948;28;20464;-78
2024/01/16 00:52:30;;;;;;;7.50;5.80;;;0.10;99.90;;;;;;5045619;28;20249;-81
2024/01/16 00:54:56;;;;;;;6.73;5.17;;;0.10;99.90;;;;;;5036535;28;20191;-79
2024/01/16 00:57:22;;;;;;;7.43;4.70;;;0.10;99.90;;;;;;5033369;28;20220;-80
2024/01/16 00:59:48;;;;;;;5.57;4.90;;;0.00;99.90;;;;;;5033497;28;20178;-77
2024/01/16 01:02:14;;;;;;;6.80;4.97;;;-0.10;99.90;;;;;;5033470;28;20178;-79
2024/01/16 01:04:41;;;;;;;5.30;4.80;;;-0.10;99.90;;;;;;5033359;28;20213;-81
2024/01/16 01:07:08;;;;;;;5.43;4.90;;;-0.30;99.90;;;;;;5033675;28;20236;-78
2024/01/16 01:09:34;;;;;;;5.43;4.13;;;-0.20;99.90;;;;;;5033566;28;20213;-80
2024/01/16 01:12:00;;;;;;;5.90;4.60;;;-0.20;99.90;;;;;;5033112;28;20230;-78
2024/01/16 01:14:29;;;;;;;5.27;4.40;;;-0.10;99.90;;;;;;5033130;28;20186;-78
2024/01/16 01:16:54;;;;;;;6.33;4.43;;;0.10;99.90;;;;;;5033822;28;20166;-76
2024/01/16 01:19:20;;;;;;;5.00;4.47;;;-0.30;99.90;;;;;;5033704;28;20186;-76
2024/01/16 01:21:46;;;;;;;5.00;4.33;;;-0.30;99.90;;;;;;5031455;28;20548;-78
2024/01/16 01:24:12;;;;;;;4.53;4.13;;;-0.20;99.90;;;;;;5032602;28;20238;-80
2024/01/16 01:26:37;;;;;;;7.53;4.30;;;-0.30;99.90;;;;;;5033214;28;20198;-76
2024/01/16 01:29:03;;;;;;;7.20;4.97;;;-0.30;99.90;;;;;;5037541;28;20183;-78
2024/01/16 01:31:29;;;;;;;5.60;4.53;;;-0.20;99.90;;;;;;5039559;28;20197;-78
2024/01/16 01:33:55;;;;;;;5.33;4.40;;;-0.40;99.90;;;;;;5033677;28;20175;-78
2024/01/16 01:36:20;;;;;;;5.17;3.93;;;-0.30;99.90;;;;;;5033813;28;20188;-79
2024/01/16 01:38:46;;;;;;;7.23;4.73;;;-0.20;99.90;;;;;;5033236;28;20270;-77
2024/01/16 01:41:12;;;;;;;4.63;4.23;;;-0.50;99.90;;;;;;5034713;28;20188;-80
2024/01/16 01:43:39;;;;;;;6.57;4.70;;;-0.40;99.90;;;;;;5033740;28;20250;-79
2024/01/16 01:46:09;;;;;;;7.20;5.10;;;-0.50;99.90;;;;;;5034575;28;20641;-80
2024/01/16 01:48:37;;;;;;;5.67;4.27;;;-0.40;99.90;;;;;;5036227;28;20175;-78
2024/01/16 01:51:03;;;;;;;7.17;5.33;;;-0.50;99.90;;;;;;5035830;28;20248;-80
2024/01/16 01:53:33;;;;;;;4.97;4.47;;;-0.50;99.90;;;;;;5036831;28;20199;-79
2024/01/16 01:56:01;;;;;;;6.80;5.70;;;-0.60;99.90;;;;;;5036156;28;20199;-78
2024/01/16 01:58:27;;;;;;;6.70;5.37;;;-0.30;99.90;;;;;;5037468;28;20182;-78
2024/01/16 02:00:54;;;;;;;6.73;5.17;;;-0.60;99.90;;;;;;5039175;28;20178;-78
2024/01/16 02:03:22;;;;;;;7.47;5.10;;;-0.50;99.90;;;;;;5036229;28;20520;-79
2024/01/16 02:05:50;;;;;;;6.20;4.93;;;-0.50;99.90;;;;;;5019764;28;20225;-78
2024/01/16 02:08:18;;;;;;;6.47;5.20;;;-0.60;99.90;;;;;;5036268;28;20186;-78
2024/01/16 02:10:50;;;;;;;5.70;4.87;;;-0.40;99.90;;;;;;5019496;28;20191;-77
2024/01/16 02:13:20;;;;;;;6.87;5.10;;;-0.60;99.90;;;;;;5036405;28;20305;-78
2024/01/16 02:15:46;;;;;;;6.97;5.07;;;-0.60;99.90;;;;;;5038765;28;20185;-76
2024/01/16 02:18:12;;;;;;;7.70;5.27;;;-0.40;99.90;;;;;;5038622;28;20175;-77
2024/01/16 02:20:38;;;;;;;7.87;5.80;;;-0.60;99.90;;;;;;5039251;28;20177;-78
2024/01/16 02:23:04;;;;;;;6.33;4.93;;;-0.40;99.90;;;;;;5036977;28;20173;-78
2024/01/16 02:25:30;;;;;;;7.23;5.30;;;-0.50;99.90;;;;;;5037899;28;20213;-77
2024/01/16 02:27:56;;;;;;;7.37;5.50;;;-0.30;99.90;;;;;;5057354;28;20182;-80
2024/01/16 02:30:22;;;;;;;9.40;5.43;;;-0.50;99.90;;;;;;5048030;28;20172;-78
2024/01/16 02:32:47;;;;;;;9.33;5.63;;;-0.50;99.90;;;;;;5039021;28;20226;-76
2024/01/16 02:35:15;;;;;;;5.30;4.80;;;-0.60;99.90;;;;;;5040651;28;20183;-78
2024/01/16 02:37:41;;;;;;;4.97;4.30;;;-0.60;99.90;;;;;;5039863;28;20173;-79
2024/01/16 02:40:07;;;;;;;6.27;4.47;;;-0.70;99.90;;;;;;5035507;28;20166;-79
2024/01/16 02:42:33;;;;;;;5.97;4.60;;;-0.60;99.90;;;;;;5037293;28;20274;-79
2024/01/16 02:44:59;;;;;;;4.90;4.30;;;-0.50;99.90;;;;;;5036788;28;20326;-79
2024/01/16 02:47:25;;;;;;;5.40;4.27;;;-0.40;99.90;;;;;;5045460;28;20194;-79
2024/01/16 02:49:50;;;;;;;5.47;4.13;;;-0.50;99.90;;;;;;5039438;28;20653;-75
2024/01/16 02:52:16;;;;;;;4.60;4.03;;;-0.50;99.90;;;;;;5036532;28;20536;-79
2024/01/16 02:54:42;;;;;;;4.43;3.90;;;-0.60;99.90;;;;;;5036105;28;20249;-78
2024/01/16 02:57:08;;;;;;;5.57;4.40;;;-0.60;99.90;;;;;;5036703;28;20660;-79
2024/01/16 02:59:33;;;;;;;6.73;5.33;;;-0.70;99.90;;;;;;5034814;28;20187;-76
2024/01/16 03:01:59;;;;;;;9.07;5.20;;;-0.70;99.90;;;;;;5036326;28;20179;-77
2024/01/16 03:04:25;;;;;;;7.47;5.13;;;-1.00;99.90;;;;;;5036118;28;20316;-78
2024/01/16 03:06:51;;;;;;;5.30;4.80;;;-0.70;99.90;;;;;;5036091;28;20171;-80
2024/01/16 03:09:16;;;;;;;5.40;4.70;;;-0.70;99.90;;;;;;5041725;28;20182;-76
2024/01/16 03:11:42;;;;;;;5.80;4.63;;;-0.80;99.90;;;;;;5036061;28;20221;-81
2024/01/16 03:14:08;;;;;;;9.23;5.53;;;-0.70;99.90;;;;;;5035635;28;20177;-81
2024/01/16 03:16:34;;;;;;;7.33;5.20;;;-1.20;99.90;;;;;;5033550;28;20722;-82
2024/01/16 03:18:59;;;;;;;8.40;5.40;;;-1.00;99.90;;;;;;5035769;28;20209;-79
2024/01/16 03:21:25;;;;;;;7.67;5.13;;;-1.10;99.90;;;;;;5035174;28;20205;-79
2024/01/16 03:23:51;;;;;;;7.00;5.53;;;-1.10;99.90;;;;;;5033863;28;20189;-77
2024/01/16 03:26:16;;;;;;;9.03;5.77;;;-0.80;99.90;;;;;;5033764;28;20186;-79
2024/01/16 03:28:43;;;;;;;7.20;5.47;;;-1.00;99.90;;;;;;5035335;28;20174;-79
2024/01/16 03:31:08;;;;;;;8.40;5.77;;;-1.10;99.90;;;;;;5034709;28;20659;-79
2024/01/16 03:33:34;;;;;;;8.30;5.50;;;-1.10;99.90;;;;;;5035015;28;20183;-79
2024/01/16 03:36:01;;;;;;;7.27;5.73;;;-0.90;99.90;;;;;;5034392;28;20181;-79
2024/01/16 03:38:27;;;;;;;10.80;5.60;;;-0.90;99.90;;;;;;5036020;28;20217;-76
2024/01/16 03:40:52;;;;;;;8.20;6.17;;;-0.90;99.90;;;;;;5034528;28;20204;-80
2024/01/16 03:43:18;;;;;;;7.47;5.40;;;-0.90;99.90;;;;;;5035610;28;20177;-79
2024/01/16 03:45:44;;;;;;;8.37;6.43;;;-1.20;99.90;;;;;;5034670;28;20197;-79
2024/01/16 03:48:10;;;;;;;7.97;5.03;;;-1.00;99.90;;;;;;5034795;28;20544;-77
2024/01/16 03:50:36;;;;;;;7.37;5.43;;;-1.10;99.90;;;;;;5034224;28;20188;-78
2024/01/16 03:53:03;;;;;;;6.47;5.17;;;-1.10;99.90;;;;;;5035055;28;20174;-78
2024/01/16 03:55:31;;;;;;;7.90;5.40;;;-1.10;99.90;;;;;;5034385;28;20187;-79
2024/01/16 03:57:56;;;;;;;9.07;5.70;;;-1.00;99.90;;;;;;5034775;28;20524;-76
2024/01/16 04:00:22;;;;;;;6.53;5.63;;;-0.90;99.90;;;;;;5036546;28;20185;-78
2024/01/16 04:02:48;;;;;;;8.90;6.20;;;-1.00;99.90;;;;;;5041007;28;20165;-79
2024/01/16 04:05:14;;;;;;;8.53;5.60;;;-1.20;99.90;;;;;;5046239;28;20263;-79
2024/01/16 04:07:39;;;;;;;8.00;5.43;;;-1.10;99.90;;;;;;5052426;28;20230;-79
2024/01/16 04:10:07;;;;;;;7.60;5.23;;;-1.30;99.90;;;;;;5051974;28;20181;-76
2024/01/16 04:12:32;;;;;;;11.77;5.77;;;-1.00;99.90;;;;;;5036328;28;20225;-78
2024/01/16 04:14:58;;;;;;;8.70;5.90;;;-1.30;99.90;;;;;;5035099;28;20174;-79
2024/01/16 04:17:24;;;;;;;10.80;5.93;;;-1.20;99.90;;;;;;5034641;28;20184;-80
2024/01/16 04:19:50;;;;;;;8.40;5.83;;;-1.00;99.90;;;;;;5036698;28;20177;-78
2024/01/16 04:22:16;;;;;;;8.83;5.37;;;-1.40;99.90;;;;;;5034706;28;20703;-77
2024/01/16 04:24:42;;;;;;;5.23;4.73;;;-0.90;99.90;;;;;;5041211;28;20235;-76
2024/01/16 04:27:07;;;;;;;8.70;5.50;;;-1.00;99.90;;;;;;5042252;28;20174;-78
2024/01/16 04:29:36;;;;;;;7.57;5.20;;;-0.90;99.90;;;;;;5034259;28;20182;-79
2024/01/16 04:32:02;;;;;;;7.87;4.60;;;-1.00;99.90;;;;;;5033828;28;20212;-79
2024/01/16 04:34:27;;;;;;;6.50;5.27;;;-1.30;99.90;;;;;;5034931;28;20182;-80
2024/01/16 04:36:53;;;;;;;10.37;5.00;;;-1.10;99.90;;;;;;5034408;28;20185;-78
2024/01/16 04:39:22;;;;;;;7.47;4.93;;;-1.40;99.90;;;;;;5034031;28;20212;-77
2024/01/16 04:41:48;;;;;;;4.40;4.00;;;-1.30;99.90;;;;;;5032447;28;20188;-78
2024/01/16 04:44:13;;;;;;;6.13;4.43;;;-1.20;99.90;;;;;;5033398;28;20208;-77
2024/01/16 04:46:39;;;;;;;5.00;4.10;;;-1.20;99.90;;;;;;5033828;28;20548;-78
2024/01/16 04:49:05;;;;;;;5.13;4.60;;;-1.40;99.90;;;;;;5035058;28;20196;-76
2024/01/16 04:51:31;;;;;;;6.03;4.30;;;-1.20;99.90;;;;;;5033935;28;20173;-79
2024/01/16 04:53:56;;;;;;;6.07;4.27;;;-1.30;99.90;;;;;;5038890;28;20540;-79
2024/01/16 04:56:22;;;;;;;6.53;4.10;;;-1.20;99.90;;;;;;5045494;28;20197;-79
2024/01/16 04:58:48;;;;;;;7.33;4.27;;;-1.50;99.90;;;;;;5034482;28;20667;-80
2024/01/16 05:01:14;;;;;;;6.53;4.10;;;-1.30;99.90;;;;;;5034102;28;20197;-78
2024/01/16 05:03:39;;;;;;;4.63;4.03;;;-1.20;99.90;;;;;;5033565;28;20182;-81
2024/01/16 05:06:13;;;;;;;5.70;3.97;;;-1.40;99.90;;;;;;5032800;28;20615;-78
2024/01/16 05:08:39;;;;;;;5.73;4.07;;;-1.40;99.90;;;;;;5034539;28;20244;-79
2024/01/16 05:11:05;;;;;;;5.53;4.07;;;-1.20;99.90;;;;;;5046946;28;20243;-77
2024/01/16 05:13:30;;;;;;;5.50;4.20;;;-1.40;99.90;;;;;;5054749;28;20180;-77
2024/01/16 05:15:56;;;;;;;4.90;3.83;;;-1.50;99.90;;;;;;5052949;28;20558;-78
2024/01/16 05:18:22;;;;;;;7.87;4.80;;;-1.30;99.90;;;;;;5053801;28;20168;-76
2024/01/16 05:20:48;;;;;;;6.57;4.53;;;-1.60;99.90;;;;;;5054651;28;20196;-79
2024/01/16 05:23:13;;;;;;;7.33;5.33;;;-1.30;99.90;;;;;;5056686;28;20172;-79
2024/01/16 05:25:39;;;;;;;6.23;4.73;;;-1.50;99.90;;;;;;5058975;28;20199;-78
2024/01/16 05:28:05;;;;;;;8.13;5.70;;;-1.50;99.90;;;;;;5058259;28;20255;-80
2024/01/16 05:30:32;;;;;;;7.13;5.70;;;-1.40;99.90;;;;;;5054797;28;20173;-79
2024/01/16 05:33:00;;;;;;;6.73;5.17;;;-1.40;99.90;;;;;;5053706;28;20187;-77
2024/01/16 05:35:27;;;;;;;7.67;6.07;;;-1.40;99.90;;;;;;5052973;28;20188;-79
2024/01/16 05:37:54;;;;;;;7.57;5.50;;;-1.70;99.90;;;;;;5053633;28;20256;-79
2024/01/16 05:40:19;;;;;;;9.43;5.93;;;-1.70;99.90;;;;;;5052715;28;20310;-76
2024/01/16 05:42:45;;;;;;;8.17;5.27;;;-1.60;99.90;;;;;;5062579;28;20169;-77
2024/01/16 05:45:11;;;;;;;11.27;6.90;;;-1.70;99.90;;;;;;5059229;28;20362;-79
2024/01/16 05:47:37;;;;;;;11.53;7.10;;;-1.70;99.90;;;;;;5052597;28;20310;-79
2024/01/16 05:50:04;;;;;;;11.03;6.70;;;-1.70;99.90;;;;;;5054600;28;20221;-79
2024/01/16 05:52:29;;;;;;;10.77;6.07;;;-1.70;99.90;;;;;;5053909;28;20194;-80
2024/01/16 05:54:57;;;;;;;8.47;6.30;;;-1.90;99.90;;;;;;5054473;28;20176;-77
2024/01/16 05:57:23;;;;;;;9.30;6.57;;;-1.70;99.90;;;;;;5067674;28;20169;-79
2024/01/16 05:59:49;;;;;;;6.87;5.73;;;-1.90;99.90;;;;;;5070461;28;20202;-77
2024/01/16 06:02:15;;;;;;;11.60;6.07;;;-1.80;99.90;;;;;;5063716;28;20267;-76
2024/01/16 06:04:40;;;;;;;10.33;5.60;;;-1.90;99.90;;;;;;5052340;28;20742;-78
2024/01/16 06:07:09;;;;;;;11.77;6.67;;;-1.70;99.90;;;;;;5053139;28;20265;-76
2024/01/16 06:09:43;;;;;;;10.07;5.43;;;-1.80;99.90;;;;;;5052791;28;20186;-78
2024/01/16 06:12:09;;;;;;;7.33;5.00;;;-1.60;99.90;;;;;;5052808;28;20230;-78
2024/01/16 06:14:35;;;;;;;7.67;5.27;;;-1.40;99.90;;;;;;5053693;28;20172;-78
2024/01/16 06:17:03;;;;;;;14.70;6.57;;;-1.60;99.90;;;;;;5051218;28;20191;-77
2024/01/16 06:19:28;;;;;;;11.23;6.27;;;-1.40;99.90;;;;;;5054452;28;20203;-77
2024/01/16 06:21:54;;;;;;;7.53;4.97;;;1.10;99.90;;;;;;5059265;28;20237;-77
2024/01/16 06:24:21;;;;;;;8.17;5.40;;;-1.80;99.90;;;;;;5068881;28;20314;-80
2024/01/16 06:26:47;;;;;;;7.77;5.03;;;-1.80;99.90;;;;;;5036262;28;20277;-79
2024/01/16 06:29:13;;;;;;;10.23;4.83;;;-1.40;99.90;;;;;;5032424;28;20255;-77
2024/01/16 06:31:38;;;;;;;9.63;5.50;;;-1.60;99.90;;;;;;5055253;28;20184;-79
2024/01/16 06:34:04;;;;;;;8.17;4.77;;;-1.70;99.90;;;;;;5055508;28;20214;-79
2024/01/16 06:36:30;;;;;;;6.20;4.67;;;-1.50;99.90;;;;;;5056930;28;20184;-79
2024/01/16 06:38:56;;;;;;;5.63;4.17;;;-1.60;99.90;;;;;;5061918;28;20173;-78
2024/01/16 06:41:21;;;;;;;10.27;4.63;;;-1.60;99.90;;;;;;5060924;28;20649;-79
2024/01/16 06:43:47;;;;;;;6.10;3.90;;;-1.90;99.90;;;;;;5056621;28;20633;-82
2024/01/16 06:46:13;;;;;;;5.67;3.77;;;-1.50;99.90;;;;;;5056162;28;20577;-80
2024/01/16 06:48:38;;;;;;;6.43;3.97;;;-1.70;99.90;;;;;;5056704;28;20531;-79
2024/01/16 06:51:05;;;;;;;6.50;3.77;;;-1.40;99.90;;;;;;5057653;28;20636;-78
2024/01/16 06:53:31;;;;;;;6.80;4.20;;;-1.60;99.90;;;;;;5056870;28;20183;-78
2024/01/16 06:55:56;;;;;;;6.13;4.40;;;-1.50;99.90;;;;;;5057457;28;20240;-78
2024/01/16 06:58:22;;;;;;;7.90;4.23;;;-1.70;99.90;;;;;;5054432;28;20257;-78
2024/01/16 07:00:48;;;;;;;5.37;4.53;;;-1.90;99.90;;;;;;5054167;28;20922;-80
2024/01/16 07:03:14;;;;;;;5.40;4.03;;;-1.70;99.90;;;;;;5056021;28;20172;-78
2024/01/16 07:05:43;;;;;;;4.63;3.77;;;-1.50;99.90;;;;;;5057029;28;20221;-77
2024/01/16 07:08:09;;;;;;;6.73;3.80;;;-1.60;99.90;;;;;;5059019;28;20209;-78
2024/01/16 07:10:35;;;;;;;10.43;3.97;;;-1.90;99.90;;;;;;5057027;28;20179;-78
2024/01/16 07:13:01;;;;;;;5.93;3.77;;;-1.80;99.90;;;;;;5056549;28;20747;-78
2024/01/16 07:15:27;;;;;;;7.73;4.27;;;-1.50;99.90;;;;;;5065617;28;20192;-78
2024/01/16 07:17:53;;;;;;;8.73;4.40;;;-1.20;99.90;;;;;;5069408;28;20180;-81
2024/01/16 07:20:19;;;;;;;4.83;3.97;;;-1.20;99.90;;;;;;5061050;28;20178;-81
2024/01/16 07:22:46;;;;;;;6.40;3.53;;;-1.00;99.90;;;;;;5066394;28;20181;-77
2024/01/16 07:25:11;;;;;;;6.27;3.80;;;-1.00;99.90;;;;;;5055108;28;20290;-77
2024/01/16 07:27:37;;;;;;;4.60;3.70;;;-1.40;99.90;;;;;;5055358;28;20599;-79
2024/01/16 07:30:07;;;;;;;6.60;4.40;;;-1.30;99.90;;;;;;5055359;28;20172;-81
2024/01/16 07:32:34;;;;;;;7.00;3.80;;;-1.20;99.90;;;;;;5055786;28;20179;-80
2024/01/16 07:35:00;;;;;;;12.20;3.57;;;-1.20;99.90;;;;;;5055716;28;20543;-78
2024/01/16 07:37:26;;;;;;;5.17;3.93;;;-1.30;99.90;;;;;;5054922;28;20255;-80
2024/01/16 07:39:51;;;;;;;10.73;3.93;;;-0.90;99.90;;;;;;5053719;28;20200;-78
2024/01/16 07:42:17;;;;;;;4.23;3.40;;;-1.10;99.90;;;;;;5055549;28;20179;-77
2024/01/16 07:44:43;;;;;;;8.00;3.33;;;-1.40;99.90;;;;;;5053974;28;20216;-77
2024/01/16 07:47:09;;;;;;;3.73;3.43;;;-1.40;99.90;;;;;;5056132;28;20168;-78
2024/01/16 07:49:34;;;;;;;5.30;3.53;;;-1.30;99.90;;;;;;5061605;28;20173;-77
2024/01/16 07:52:00;;;;;;;5.63;3.33;;;-1.10;99.90;;;;;;5065307;28;20176;-79
2024/01/16 07:54:26;;;;;;;4.03;3.17;;;-1.00;99.90;;;;;;5055479;28;20195;-76
2024/01/16 07:56:52;;;;;;;4.60;3.50;;;-1.20;99.90;;;;;;5060304;28;20240;-77
2024/01/16 07:59:18;;;;;;;5.93;3.30;;;-1.20;99.90;;;;;;5061417;28;20210;-79
2024/01/16 08:01:44;;;;;;;3.83;3.47;;;-1.40;99.90;;;;;;5055320;28;20208;-78
2024/01/16 08:04:10;;;;;;;6.30;3.77;;;-0.80;99.90;;;;;;5055431;28;20227;-80
2024/01/16 08:06:36;;;;;;;3.30;3.07;;;-1.10;99.90;;;;;;5055356;28;20183;-79
2024/01/16 08:09:02;;;;;;;8.07;3.60;;;-0.90;99.90;;;;;;5054619;28;20275;-78
2024/01/16 08:11:27;;;;;;;7.60;3.53;;;-0.80;99.90;;;;;;5053839;28;20260;-78
2024/01/16 08:13:53;;;;;;;3.73;3.30;;;-0.60;99.90;;;;;;5054045;28;20223;-79
2024/01/16 08:16:20;;;;;;;4.03;3.20;;;-0.30;99.90;;;;;;5053953;28;20182;-79
2024/01/16 08:18:46;;;;;;;3.60;2.97;;;-0.60;99.90;;;;;;5069866;28;20183;-79
2024/01/16 08:21:12;;;;;;;5.03;3.60;;;-0.50;99.90;;;;;;5064345;28;20180;-79
2024/01/16 08:23:38;;;;;;;4.00;3.50;;;-0.40;99.90;;;;;;5055720;28;20184;-79
2024/01/16 08:26:04;;;;;;;6.90;3.73;;;-0.20;99.90;;;;;;5054535;28;20566;-79
2024/01/16 08:28:30;;;;;;;6.03;4.27;;;0.00;99.90;;;;;;5054057;28;20165;-78
2024/01/16 08:30:56;;;;;;;6.80;3.80;;;0.10;99.90;;;;;;5052816;28;20190;-79
2024/01/16 08:33:22;;;;;;;10.30;4.40;;;0.10;99.90;;;;;;5053056;28;20244;-80
2024/01/16 08:35:48;;;;;;;8.20;4.30;;;0.00;99.90;;;;;;5054034;28;20606;-78
2024/01/16 08:38:14;;;;;;;8.30;4.20;;;0.20;99.90;;;;;;5061927;28;20169;-76
2024/01/16 08:40:39;;;;;;;4.93;4.17;;;0.10;99.90;;;;;;5054189;28;20187;-79
2024/01/16 08:43:05;;;;;;;5.63;4.07;;;0.00;99.90;;;;;;5053934;28;20183;-78
2024/01/16 08:45:31;;;;;;;6.63;3.67;;;0.10;99.90;;;;;;5053289;28;20269;-79
2024/01/16 08:47:58;;;;;;;7.33;3.10;;;0.30;99.90;;;;;;5053621;28;20273;-79
2024/01/16 08:50:23;;;;;;;7.97;3.20;;;0.50;99.90;;;;;;5053755;28;20264;-80
2024/01/16 08:52:49;;;;;;;3.10;2.80;;;0.60;99.90;;;;;;5053812;28;20328;-78
2024/01/16 08:55:15;;;;;;;3.83;3.00;;;0.50;99.90;;;;;;5053597;28;20187;-79
2024/01/16 08:57:41;;;;;;;6.07;3.87;;;0.60;99.90;;;;;;5059261;28;20171;-77
2024/01/16 09:00:10;;;;;;;9.67;6.67;;;0.80;99.90;;;;;;5065898;28;20187;-79
2024/01/16 09:02:36;;;;;;;10.60;6.53;;;1.00;99.90;;;;;;5052306;28;20219;-79
2024/01/16 09:05:02;;;;;;;10.97;6.97;;;0.80;99.90;;;;;;5053440;28;20225;-79
2024/01/16 09:07:27;;;;;;;8.07;5.37;;;0.80;99.90;;;;;;5053561;28;20186;-77
2024/01/16 09:09:53;;;;;;;7.83;4.97;;;0.80;99.90;;;;;;5055063;28;20168;-76
2024/01/16 09:12:19;;;;;;;6.60;4.83;;;0.90;99.90;;;;;;5059519;28;20635;-78
2024/01/16 09:14:45;;;;;;;13.20;4.50;;;0.80;99.90;;;;;;5063096;28;20168;-78
2024/01/16 09:17:11;;;;;;;4.10;3.70;;;1.00;99.90;;;;;;5066772;28;20186;-76
2024/01/16 09:19:37;;;;;;;8.93;4.40;;;0.80;99.90;;;;;;5056942;28;20166;-77
2024/01/16 09:22:03;;;;;;;8.27;4.60;;;1.00;99.90;;;;;;5054257;28;20212;-79
2024/01/16 09:24:30;;;;;;;10.93;4.47;;;1.10;99.90;;;;;;5052903;28;20202;-78
2024/01/16 09:26:56;;;;;;;10.30;4.10;;;1.10;99.90;;;;;;5052945;28;20175;-80
2024/01/16 09:29:22;;;;;;;5.00;4.37;;;1.10;99.90;;;;;;5053015;28;20168;-79
2024/01/16 09:31:48;;;;;;;4.57;3.50;;;1.20;99.90;;;;;;5053115;28;20584;-78
2024/01/16 09:34:14;;;;;;;5.63;4.03;;;1.10;99.90;;;;;;5051929;28;20606;-78
2024/01/16 09:36:40;;;;;;;6.77;3.87;;;1.30;99.90;;;;;;5053886;28;20194;-80
2024/01/16 09:39:08;;;;;;;8.67;4.97;;;1.20;99.90;;;;;;5055486;28;20174;-77
2024/01/16 09:41:34;;;;;;;8.30;4.77;;;1.10;99.90;;;;;;5069840;28;20265;-77
2024/01/16 09:44:00;;;;;;;6.03;4.93;;;1.30;99.90;;;;;;5054401;28;20662;-79
2024/01/16 09:46:26;;;;;;;7.80;6.00;;;1.20;99.90;;;;;;5053222;28;20186;-78
2024/01/16 09:48:56;;;;;;;11.90;5.80;;;1.30;99.90;;;;;;5051819;28;20595;-79
2024/01/16 09:51:22;;;;;;;10.43;5.33;;;1.50;99.90;;;;;;5053075;28;20187;-77
2024/01/16 09:53:48;;;;;;;7.27;5.37;;;1.30;99.90;;;;;;5061659;28;20229;-78
2024/01/16 09:56:16;;;;;;;6.47;5.03;;;1.40;99.90;;;;;;5066118;28;20188;-77
2024/01/16 09:58:44;;;;;;;7.90;4.57;;;1.50;99.90;;;;;;5065942;28;20599;-78
2024/01/16 10:01:12;;;;;;;5.07;4.40;;;1.50;99.90;;;;;;5055416;28;20179;-79
2024/01/16 10:03:38;;;;;;;7.73;4.10;;;1.30;99.90;;;;;;5051394;28;20182;-77
2024/01/16 10:06:07;;;;;;;5.77;3.83;;;1.50;99.90;;;;;;5052496;28;20278;-78
2024/01/16 10:08:33;;;;;;;8.47;4.23;;;1.50;99.30;;;;;;5053568;28;20172;-79
2024/01/16 10:10:59;;;;;;;11.40;4.77;;;1.50;98.70;;;;;;5056093;28;20172;-79
2024/01/16 10:13:26;;;;;;;4.47;4.03;;;1.60;99.30;;;;;;5056126;28;20984;-78
2024/01/16 10:15:55;;;;;;;5.83;4.00;;;1.70;99.70;;;;;;5056175;28;20169;-80
2024/01/16 10:18:30;;;;;;;4.77;3.60;;;2.00;98.60;;;;;;5057847;28;20276;-79
2024/01/16 10:20:56;;;;;;;7.30;3.97;;;2.00;96.80;;;;;;5061021;28;20204;-80
2024/01/16 10:23:36;;;;;;;3.30;2.97;;;1.90;97.00;;;;;;5056209;28;20186;-80
2024/01/16 10:26:09;;;;;;;8.90;4.20;;;2.20;96.60;;;;;;5056260;28;20656;-80
2024/01/16 10:28:39;;;;;;;4.47;3.77;;;2.20;97.80;;;;;;5056759;28;20257;-80
2024/01/16 10:31:09;;;;;;;8.03;3.90;;;2.20;97.10;;;;;;5056593;28;20174;-77
2024/01/16 10:33:38;;;;;;;8.47;3.80;;;2.20;96.10;;;;;;5064512;28;20177;-76
2024/01/16 10:36:16;;;;;;;5.50;3.97;;;2.30;96.00;;;;;;5070396;28;20231;-79
2024/01/16 10:38:45;;;;;;;14.97;3.40;;;2.40;96.70;;;;;;5061424;28;20206;-79
2024/01/16 10:41:16;;;;;;;4.60;2.90;;;2.40;95.50;;;;;;5056272;28;20201;-77
2024/01/16 10:43:44;;;;;;;4.50;3.33;;;2.50;94.30;;;;;;5056013;28;20181;-79
2024/01/16 10:46:16;;;;;;;4.23;3.00;;;2.40;94.30;;;;;;5055910;28;20716;-77
2024/01/16 10:48:45;;;;;;;2.27;2.07;;;2.50;95.60;;;;;;5056828;28;20567;-79
2024/01/16 10:51:14;;;;;;;2.73;2.10;;;2.50;92.70;;;;;;5056261;28;20223;-77
2024/01/16 10:53:46;;;;;;;1.90;1.80;;;2.50;92.90;;;;;;5061305;28;20178;-78
2024/01/16 10:56:12;;;;;;;2.53;1.50;;;2.50;93.10;;;;;;5068099;28;20173;-78
2024/01/16 10:58:42;;;;;;;2.17;1.60;;;2.50;91.90;;;;;;5070147;28;20173;-76
2024/01/16 11:01:14;;;;;;;2.80;2.03;;;2.70;88.60;;;;;;5072726;28;20187;-79
2024/01/16 11:03:47;;;;;;;1.90;1.80;;;2.70;87.90;;;;;;5070796;28;20160;-80
2024/01/16 11:06:16;;;;;;;3.33;1.80;;;2.90;88.00;;;;;;5075503;28;20211;-77
2024/01/16 11:08:42;;;;;;;1.87;1.77;;;2.90;86.30;;;;;;5055845;28;20618;-77
2024/01/16 11:11:09;;;;;;;2.43;1.93;;;2.80;85.50;;;;;;5054945;28;20200;-77
2024/01/16 11:13:36;;;;;;;2.10;2.00;;;3.50;86.30;;;;;;5054848;28;20167;-78
2024/01/16 11:16:06;;;;;;;2.50;2.30;;;2.70;89.50;;;;;;5055236;28;20216;-78
2024/01/16 11:18:34;;;;;;;1.87;1.77;;;2.90;88.80;;;;;;5055084;28;20185;-80
2024/01/16 11:21:02;;;;;;;2.00;1.90;;;2.90;86.00;;;;;;5057399;28;20182;-78
2024/01/16 11:23:28;;;;;;;1.83;1.73;;;2.90;88.40;;;;;;5067775;28;20182;-77
2024/01/16 11:25:54;;;;;;;2.47;1.83;;;2.90;86.20;;;;;;5060152;28;20213;-79
2024/01/16 11:28:20;;;;;;;2.03;1.93;;;2.90;86.90;;;;;;5055006;28;20305;-77
2024/01/16 11:30:46;;;;;;;1.43;1.40;;;2.90;84.70;;;;;;5053749;28;20188;-77
2024/01/16 11:33:47;;;;;;;1.70;1.60;;;3.00;84.50;;;;;;5054947;28;20698;-79
2024/01/16 11:36:54;;;;;;;2.17;2.07;;;3.00;85.60;;;;;;5069923;28;20183;-79
2024/01/16 11:39:21;;;;;;;2.03;1.93;;;3.00;87.50;;;;;;5052739;28;20200;-78
2024/01/16 11:41:57;;;;;;;4.77;2.30;;;2.90;86.80;;;;;;5053089;28;20265;-78
2024/01/16 11:44:41;;;;;;;4.07;2.43;;;3.20;87.20;;;;;;5052552;28;20271;-79
2024/01/16 11:47:07;;;;;;;2.87;2.40;;;3.00;88.30;;;;;;5052609;28;20635;-80
2024/01/16 11:49:33;;;;;;;2.60;2.40;;;3.10;89.50;;;;;;5053016;28;20185;-76
2024/01/16 11:52:02;;;;;;;6.33;2.53;;;3.00;89.40;;;;;;5061020;28;20613;-77
2024/01/16 11:54:28;;;;;;;3.83;2.57;;;3.20;89.40;;;;;;5060346;28;20221;-79
2024/01/16 11:57:17;;;;;;;2.80;2.60;;;3.30;88.20;;;;;;5052451;28;20190;-78
2024/01/16 12:00:12;;;;;;;4.10;3.10;;;3.40;88.30;;;;;;5052589;28;20215;-78
2024/01/16 12:02:44;;;;;;;5.53;2.83;;;3.30;89.60;;;;;;5053332;28;20204;-79
2024/01/16 12:05:12;;;;;;;3.57;3.00;;;3.40;89.30;;;;;;5052205;28;20218;-77
2024/01/16 12:07:52;;;;;;;3.00;2.73;;;3.30;90.20;;;;;;5052174;28;20286;-79
2024/01/16 12:10:19;;;;;;;3.50;2.67;;;3.30;90.50;;;;;;5053146;28;20199;-79
2024/01/16 12:12:46;;;;;;;4.00;2.60;;;3.20;90.90;;;;;;5055203;28;20215;-78
2024/01/16 12:15:16;;;;;;;3.37;3.07;;;3.30;91.10;;;;;;5059467;28;20181;-80
2024/01/16 12:18:05;;;;;;;4.20;2.90;;;3.10;90.70;;;;;;5054654;28;20168;-80
2024/01/16 12:20:33;;;;;;;2.70;2.50;;;3.10;91.20;;;;;;5053505;28;20175;-77
2024/01/16 12:23:00;;;;;;;4.13;2.60;;;3.20;91.50;;;;;;5053071;28;20202;-79
2024/01/16 12:25:27;;;;;;;4.60;2.73;;;3.30;91.90;;;;;;5053749;28;20227;-77
2024/01/16 12:27:57;;;;;;;4.27;3.20;;;3.20;91.30;;;;;;5054163;28;20174;-78
2024/01/16 12:30:28;;;;;;;3.03;2.70;;;3.20;91.30;;;;;;5054693;28;20276;-77
2024/01/16 12:33:02;;;;;;;6.03;3.10;;;3.10;90.80;;;;;;5055146;28;20154;-76
2024/01/16 12:35:28;;;;;;;5.00;2.90;;;3.10;91.80;;;;;;5053045;28;20183;-79
2024/01/16 12:38:12;;;;;;;4.70;3.30;;;3.10;90.80;;;;;;5053734;28;20173;-79
2024/01/16 12:40:40;;;;;;;2.97;2.60;;;3.10;90.50;;;;;;5055047;28;20173;-80
2024/01/16 12:43:09;;;;;;;2.90;2.70;;;3.10;90.40;;;;;;5054421;28;20200;-79
2024/01/16 12:45:35;;;;;;;2.30;2.10;;;3.10;90.30;;;;;;5053558;28;20236;-75
2024/01/16 12:48:03;;;;;;;2.83;2.60;;;3.10;90.20;;;;;;5052281;28;20190;-78
2024/01/16 12:50:30;;;;;;;3.50;2.67;;;3.10;89.70;;;;;;5053451;28;20712;-77